createdAt,value
2023-04-02T00:01:43.951Z,94.72
2023-04-02T00:05:31.763Z,96.00
2023-04-02T00:08:43.483Z,95.24
2023-04-02T00:11:48.925Z,96.05
2023-04-02T00:14:55.644Z,95.69
2023-04-02T00:18:00.043Z,95.79
2023-04-02T00:21:10.281Z,96.22
2023-04-02T00:24:21.994Z,96.12
2023-04-02T00:27:24.570Z,96.89
2023-04-02T00:30:28.211Z,96.38
2023-04-02T00:33:32.116Z,96.37
2023-04-02T00:36:35.569Z,96.88
2023-04-02T00:39:42.184Z,95.97
2023-04-02T00:42:46.931Z,96.05
2023-04-02T00:45:56.292Z,95.68
2023-04-02T00:49:10.768Z,95.90
2023-04-02T00:52:17.498Z,95.82
2023-04-02T00:55:27.417Z,95.64
2023-04-02T00:58:34.098Z,95.53
2023-04-02T01:01:37.813Z,95.78
2023-04-02T01:04:41.195Z,95.25
2023-04-02T01:08:08.206Z,95.43
2023-04-02T01:11:28.865Z,94.70
2023-04-02T01:14:56.431Z,94.60
2023-04-02T01:18:13.790Z,94.09
2023-04-02T01:21:38.084Z,94.30
2023-04-02T01:24:44.427Z,93.92
2023-04-02T01:28:07.048Z,94.45
2023-04-02T01:31:10.638Z,94.09
2023-04-02T01:34:20.509Z,94.15
2023-04-02T01:37:34.325Z,94.04
2023-04-02T01:41:04.570Z,93.75
2023-04-02T01:44:17.720Z,93.45
2023-04-02T01:47:25.623Z,94.22
2023-04-02T01:50:37.394Z,93.63
2023-04-02T01:53:40.579Z,94.38
2023-04-02T01:56:44.875Z,93.84
2023-04-02T01:59:48.211Z,94.41
2023-04-02T02:02:52.189Z,93.96
2023-04-02T02:05:56.766Z,93.78
2023-04-02T02:09:04.557Z,93.72
2023-04-02T02:12:13.217Z,93.86
2023-04-02T02:15:18.539Z,94.26
2023-04-02T02:18:25.928Z,93.39
2023-04-02T02:21:49.624Z,93.27
2023-04-02T02:25:06.649Z,93.14
2023-04-02T02:28:26.027Z,93.05
2023-04-02T02:31:34.423Z,93.61
2023-04-02T02:34:43.590Z,93.74
2023-04-02T02:37:54.887Z,93.97
2023-04-02T02:41:05.046Z,94.46
2023-04-02T02:44:08.751Z,94.32
2023-04-02T02:47:17.061Z,94.52
2023-04-02T02:50:24.497Z,94.68
2023-04-02T02:53:27.794Z,94.29
2023-04-02T02:56:34.863Z,94.55
2023-04-02T02:59:38.389Z,95.43
2023-04-02T03:02:43.446Z,95.88
2023-04-02T03:05:52.739Z,95.02
2023-04-02T03:09:13.541Z,95.36
2023-04-02T03:12:38.698Z,95.64
2023-04-02T03:16:00.356Z,97.03
2023-04-02T03:19:11.779Z,96.00
2023-04-02T03:22:23.564Z,96.02
2023-04-02T03:25:37.147Z,96.69
2023-04-02T03:28:46.792Z,96.62
2023-04-02T03:32:00.681Z,96.83
2023-04-02T03:35:20.560Z,96.44
2023-04-02T03:38:35.770Z,96.98
2023-04-02T03:41:48.092Z,97.05
2023-04-02T03:45:19.434Z,97.18
2023-04-02T03:48:34.082Z,97.58
2023-04-02T03:51:51.935Z,96.93
2023-04-02T03:55:01.223Z,97.74
2023-04-02T03:58:22.186Z,98.76
2023-04-02T04:01:53.494Z,98.32
2023-04-02T04:04:57.868Z,98.68
2023-04-02T04:08:05.601Z,99.34
2023-04-02T04:11:17.625Z,99.85
2023-04-02T04:14:32.956Z,100.00
2023-04-02T04:17:56.886Z,100.00
2023-04-02T04:21:12.266Z,100.00
2023-04-02T04:24:27.291Z,100.00
2023-04-02T04:27:53.897Z,100.00
2023-04-02T04:31:01.481Z,100.00
2023-04-02T04:34:11.615Z,100.00
2023-04-02T04:37:21.711Z,100.00
2023-04-02T04:40:42.356Z,100.00
2023-04-02T04:43:52.299Z,100.00
2023-04-02T04:47:06.402Z,100.00
2023-04-02T04:50:31.248Z,100.00
2023-04-02T04:53:38.214Z,100.00
2023-04-02T04:56:46.863Z,100.00
2023-04-02T04:59:58.723Z,99.82
2023-04-02T05:03:30.460Z,94.66
2023-04-02T05:06:52.192Z,88.48
2023-04-02T05:10:01.557Z,86.11
2023-04-02T05:13:35.491Z,81.66
2023-04-02T05:16:46.303Z,78.23
2023-04-02T05:20:16.332Z,75.64
2023-04-02T05:23:30.517Z,74.45
2023-04-02T05:26:45.895Z,72.35
2023-04-02T05:30:00.201Z,69.34
2023-04-02T05:33:21.146Z,67.68
2023-04-02T05:36:32.539Z,66.86
2023-04-02T05:39:35.596Z,66.69
2023-04-02T05:42:43.521Z,65.41
2023-04-02T05:45:54.342Z,63.91
2023-04-02T05:49:00.300Z,62.87
2023-04-02T05:52:06.973Z,61.79
2023-04-02T05:55:13.350Z,62.16
2023-04-02T06:01:45.422Z,57.67
2023-04-02T06:05:04.366Z,56.72
2023-04-02T06:08:22.781Z,55.62
2023-04-02T06:11:35.443Z,54.52
2023-04-02T06:14:38.489Z,54.30
2023-04-02T06:17:51.218Z,53.19
2023-04-02T06:20:55.446Z,55.19
2023-04-02T06:24:03.460Z,53.01
2023-04-02T06:27:11.969Z,52.70
2023-04-02T06:30:32.992Z,48.47
2023-04-02T06:33:36.542Z,47.74
2023-04-02T06:36:40.402Z,45.54
2023-04-02T06:39:43.870Z,48.56
2023-04-02T06:42:59.579Z,49.56
2023-04-02T06:46:18.330Z,49.37
2023-04-02T06:53:00.363Z,47.83
2023-04-02T06:56:22.273Z,46.63
2023-04-02T07:03:30.820Z,46.18
2023-04-02T07:06:42.756Z,45.54
2023-04-02T07:09:46.780Z,46.47
2023-04-02T07:12:51.100Z,43.91
2023-04-02T07:15:56.287Z,44.37
2023-04-02T07:19:00.929Z,44.87
2023-04-02T07:22:07.384Z,45.74
2023-04-02T07:25:14.351Z,45.99
2023-04-02T07:28:22.765Z,44.91
2023-04-02T07:32:17.074Z,44.97
2023-04-02T07:35:20.801Z,44.21
2023-04-02T07:47:28.082Z,49.96
2023-04-02T07:50:32.094Z,48.72
2023-04-02T07:53:44.709Z,50.56
2023-04-02T07:56:55.174Z,50.61
2023-04-02T08:00:31.072Z,51.96
2023-04-02T08:03:35.781Z,51.37
2023-04-02T08:06:39.696Z,49.47
2023-04-02T08:09:50.216Z,48.89
2023-04-02T08:12:56.059Z,47.71
2023-04-02T08:16:16.912Z,49.73
2023-04-02T08:19:28.314Z,51.47
2023-04-02T08:22:49.580Z,48.53
2023-04-02T08:26:03.337Z,49.84
2023-04-02T08:29:13.333Z,51.13
2023-04-02T08:32:17.306Z,50.19
2023-04-02T08:35:59.722Z,50.71
2023-04-02T08:43:13.380Z,51.28
2023-04-02T08:46:41.335Z,50.60
2023-04-02T08:49:52.927Z,50.43
2023-04-02T08:53:01.032Z,50.79
2023-04-02T08:56:22.443Z,51.42
2023-04-02T08:59:34.957Z,50.18
2023-04-02T09:02:41.610Z,46.30
2023-04-02T09:05:46.544Z,45.86
2023-04-02T09:08:52.526Z,47.71
2023-04-02T09:12:04.081Z,48.05
2023-04-02T09:15:22.736Z,46.67
2023-04-02T09:18:28.608Z,44.87
2023-04-02T09:21:37.680Z,42.08
2023-04-02T09:24:40.591Z,45.19
2023-04-02T09:27:52.298Z,42.41
2023-04-02T09:31:20.402Z,43.34
2023-04-02T09:34:29.679Z,44.69
2023-04-02T09:37:39.216Z,45.30
2023-04-02T09:40:56.302Z,43.90
2023-04-02T09:44:31.262Z,46.86
2023-04-02T09:47:34.392Z,48.46
2023-04-02T09:50:37.718Z,50.62
2023-04-02T09:53:46.742Z,49.04
2023-04-02T09:57:04.022Z,48.51
2023-04-02T10:00:29.745Z,48.46
2023-04-02T10:03:35.649Z,49.40
2023-04-02T10:07:01.549Z,49.71
2023-04-02T10:10:30.767Z,50.54
2023-04-02T10:13:52.944Z,51.64
2023-04-02T10:16:59.693Z,52.05
2023-04-02T10:20:22.404Z,50.63
2023-04-02T10:23:29.835Z,50.95
2023-04-02T10:26:52.504Z,48.94
2023-04-02T10:30:13.889Z,46.85
2023-04-02T10:33:33.228Z,45.52
2023-04-02T10:36:51.487Z,42.47
2023-04-02T10:40:02.005Z,42.65
2023-04-02T10:43:39.819Z,43.20
2023-04-02T10:47:13.843Z,43.37
2023-04-02T10:50:44.717Z,44.05
2023-04-02T10:53:53.441Z,44.98
2023-04-02T10:57:06.824Z,44.35
2023-04-02T11:00:18.834Z,44.89
2023-04-02T11:03:45.695Z,44.98
2023-04-02T11:07:13.327Z,46.53
2023-04-02T11:10:20.908Z,45.90
2023-04-02T11:13:43.230Z,47.02
2023-04-02T11:16:49.278Z,44.85
2023-04-02T11:19:52.833Z,44.42
2023-04-02T11:23:11.308Z,45.30
2023-04-02T11:26:29.182Z,44.80
2023-04-02T11:29:34.813Z,43.60
2023-04-02T11:32:45.255Z,43.96
2023-04-02T11:35:48.367Z,42.25
2023-04-02T11:38:52.940Z,42.04
2023-04-02T11:42:21.213Z,41.29
2023-04-02T11:45:26.735Z,39.79
2023-04-02T11:48:36.194Z,39.70
2023-04-02T11:51:39.096Z,42.20
2023-04-02T11:54:42.815Z,43.93
2023-04-02T11:58:04.758Z,42.81
2023-04-02T12:01:33.994Z,40.38
2023-04-02T12:05:04.568Z,42.01
2023-04-02T12:08:57.935Z,40.23
2023-04-02T12:12:26.231Z,40.11
2023-04-02T12:15:43.600Z,43.61
2023-04-02T12:18:54.088Z,41.26
2023-04-02T12:21:59.323Z,38.68
2023-04-02T12:25:22.189Z,38.42
2023-04-02T12:28:28.977Z,41.87
2023-04-02T12:31:33.724Z,41.30
2023-04-02T12:34:36.920Z,41.75
2023-04-02T12:37:40.013Z,42.22
2023-04-02T12:41:00.771Z,43.67
2023-04-02T12:44:16.520Z,40.13
2023-04-02T12:47:19.220Z,43.13
2023-04-02T12:50:22.928Z,41.17
2023-04-02T12:53:36.651Z,42.22
2023-04-02T12:56:40.087Z,42.10
2023-04-02T12:59:43.826Z,42.19
2023-04-02T13:02:58.582Z,41.54
2023-04-02T13:06:01.533Z,43.33
2023-04-02T13:09:36.333Z,43.39
2023-04-02T13:12:41.278Z,44.10
2023-04-02T13:15:44.586Z,44.69
2023-04-02T13:18:49.304Z,44.77
2023-04-02T13:21:53.271Z,45.49
2023-04-02T13:24:58.212Z,46.24
2023-04-02T13:28:02.044Z,46.25
2023-04-02T13:31:04.847Z,48.67
2023-04-02T13:34:07.898Z,50.19
2023-04-02T13:37:14.000Z,49.35
2023-04-02T13:40:19.418Z,48.81
2023-04-02T13:43:34.719Z,47.35
2023-04-02T13:46:41.341Z,48.94
2023-04-02T13:49:44.518Z,46.95
2023-04-02T13:52:50.648Z,47.28
2023-04-02T13:55:54.026Z,47.73
2023-04-02T13:58:57.069Z,49.48
2023-04-02T14:02:07.618Z,50.66
2023-04-02T14:05:24.033Z,50.11
2023-04-02T14:08:51.661Z,49.83
2023-04-02T14:12:14.007Z,49.24
2023-04-02T14:15:33.199Z,49.81
2023-04-02T14:18:38.032Z,48.53
2023-04-02T14:22:06.527Z,46.61
2023-04-02T14:25:34.204Z,45.03
2023-04-02T14:28:49.450Z,44.73
2023-04-02T14:31:55.481Z,44.56
2023-04-02T14:35:13.370Z,44.87
2023-04-02T14:38:34.150Z,45.04
2023-04-02T14:41:56.981Z,45.48
2023-04-02T14:45:17.076Z,46.32
2023-04-02T14:48:24.724Z,45.75
2023-04-02T14:51:37.496Z,46.15
2023-04-02T14:55:03.331Z,47.14
2023-04-02T14:58:16.420Z,48.01
2023-04-02T15:01:27.896Z,51.32
2023-04-02T15:04:46.210Z,52.19
2023-04-02T15:08:24.671Z,52.45
2023-04-02T15:11:35.137Z,53.07
2023-04-02T15:14:45.916Z,52.88
2023-04-02T15:17:49.103Z,52.93
2023-04-02T15:21:09.251Z,54.96
2023-04-02T15:24:47.744Z,56.32
2023-04-02T15:28:09.741Z,57.77
2023-04-02T15:31:14.718Z,60.28
2023-04-02T15:34:22.351Z,59.79
2023-04-02T15:37:45.308Z,61.32
2023-04-02T15:40:51.694Z,60.75
2023-04-02T15:44:04.504Z,62.90
2023-04-02T15:47:33.947Z,66.87
2023-04-02T15:50:51.410Z,70.73
2023-04-02T15:54:12.156Z,74.07
2023-04-02T15:57:21.045Z,73.60
2023-04-02T16:00:52.608Z,74.98
2023-04-02T16:04:21.079Z,74.18
2023-04-02T16:07:40.242Z,79.61
2023-04-02T16:10:45.778Z,83.90
2023-04-02T16:13:49.358Z,88.43
2023-04-02T16:16:59.911Z,90.40
2023-04-02T16:20:22.039Z,93.71
2023-04-02T16:23:45.660Z,98.20
2023-04-02T16:27:08.951Z,98.71
2023-04-02T16:30:49.772Z,100.00
2023-04-02T16:34:06.264Z,98.43
2023-04-02T16:37:31.330Z,92.23
2023-04-02T16:41:07.900Z,87.57
2023-04-02T16:44:28.854Z,87.76
2023-04-02T16:48:08.160Z,93.00
2023-04-02T16:51:47.444Z,97.35
2023-04-02T16:55:43.427Z,100.00
2023-04-02T16:59:49.011Z,100.00
2023-04-02T17:03:24.352Z,100.00
2023-04-02T17:06:49.081Z,100.00
2023-04-02T17:09:54.331Z,100.00
2023-04-02T17:13:18.734Z,100.00
2023-04-02T17:16:32.381Z,100.00
2023-04-02T17:19:36.495Z,100.00
2023-04-02T17:22:40.819Z,100.00
2023-04-02T17:25:58.169Z,100.00
2023-04-02T17:29:08.427Z,100.00
2023-04-02T17:32:24.866Z,100.00
2023-04-02T17:35:36.135Z,100.00
2023-04-02T17:39:04.592Z,100.00
2023-04-02T17:42:21.336Z,100.00
2023-04-02T17:45:34.956Z,100.00
2023-04-02T17:48:51.640Z,100.00
2023-04-02T17:52:06.866Z,100.00
2023-04-02T17:55:46.374Z,100.00
2023-04-02T17:59:03.411Z,100.00
2023-04-02T18:02:19.635Z,100.00
2023-04-02T18:05:43.862Z,93.78
2023-04-02T18:13:07.788Z,91.28
2023-04-02T18:16:42.800Z,88.54
2023-04-02T18:20:01.273Z,90.07
2023-04-02T18:23:20.652Z,86.80
2023-04-02T18:26:44.700Z,83.93
2023-04-02T18:30:09.489Z,83.75
2023-04-02T18:33:13.919Z,83.63
2023-04-02T18:36:28.900Z,82.84
2023-04-02T18:40:09.729Z,82.95
2023-04-02T18:43:35.013Z,85.13
2023-04-02T18:46:46.781Z,82.82
2023-04-02T18:50:05.739Z,82.17
2023-04-02T18:53:23.075Z,82.53
2023-04-02T18:56:32.347Z,80.94
2023-04-02T18:59:55.778Z,82.08
2023-04-02T19:03:30.293Z,82.62
2023-04-02T19:06:52.611Z,82.37
2023-04-02T19:10:02.973Z,81.32
2023-04-02T19:13:17.968Z,81.60
2023-04-02T19:16:27.432Z,82.18
2023-04-02T19:19:46.813Z,82.80
2023-04-02T19:23:11.586Z,82.73
2023-04-02T19:26:25.057Z,82.63
2023-04-02T19:29:53.162Z,84.33
2023-04-02T19:33:11.020Z,84.38
2023-04-02T19:36:41.383Z,84.94
2023-04-02T19:40:04.880Z,84.86
2023-04-02T19:43:10.752Z,84.67
2023-04-02T19:46:14.771Z,85.47
2023-04-02T19:49:39.737Z,85.45
2023-04-02T19:52:43.056Z,85.92
2023-04-02T19:55:47.822Z,84.74
2023-04-02T19:58:51.549Z,83.27
2023-04-02T20:01:55.032Z,85.00
2023-04-02T20:04:58.175Z,85.16
2023-04-02T20:08:01.006Z,84.62
2023-04-02T20:11:05.432Z,84.92
2023-04-02T20:14:10.007Z,83.94
2023-04-02T20:17:13.355Z,84.35
2023-04-02T20:20:16.993Z,84.63
2023-04-02T20:23:20.981Z,84.25
2023-04-02T20:26:23.761Z,84.25
2023-04-02T20:29:29.497Z,85.08
2023-04-02T20:32:36.553Z,83.78
2023-04-02T20:35:41.583Z,83.67
2023-04-02T20:38:45.809Z,85.13
2023-04-02T20:41:49.011Z,84.64
2023-04-02T20:44:51.915Z,84.93
2023-04-02T20:47:55.388Z,84.76
2023-04-02T20:51:00.095Z,84.04
2023-04-02T20:54:18.201Z,84.53
2023-04-02T20:57:22.139Z,86.67
2023-04-02T21:00:25.478Z,87.11
2023-04-02T21:03:28.101Z,88.38
2023-04-02T21:06:33.652Z,89.38
2023-04-02T21:09:36.193Z,90.07
2023-04-02T21:12:39.058Z,91.26
2023-04-02T21:15:44.390Z,89.83
2023-04-02T21:18:49.316Z,89.94
2023-04-02T21:21:55.175Z,87.58
2023-04-02T21:24:57.954Z,91.00
2023-04-02T21:28:00.793Z,91.05
2023-04-02T21:31:10.952Z,87.77
2023-04-02T21:34:15.754Z,86.47
2023-04-02T21:37:18.680Z,87.89
2023-04-02T21:40:21.794Z,86.50
2023-04-02T21:43:24.585Z,86.04
2023-04-02T21:46:31.248Z,87.73
2023-04-02T21:49:34.278Z,87.98
2023-04-02T21:52:37.070Z,88.00
2023-04-02T21:55:39.963Z,89.72
2023-04-02T21:58:44.197Z,88.89
2023-04-02T22:01:49.382Z,89.85
2023-04-02T22:04:52.358Z,91.40
2023-04-02T22:07:54.984Z,92.67
2023-04-02T22:10:57.785Z,95.54
2023-04-02T22:14:01.985Z,94.41
2023-04-02T22:17:07.444Z,100.00
2023-04-02T22:20:10.801Z,100.00
2023-04-02T22:23:13.684Z,100.00
2023-04-02T22:26:18.527Z,100.00
2023-04-02T22:29:21.840Z,100.00
2023-04-02T22:32:25.712Z,100.00
2023-04-02T22:35:30.727Z,100.00
2023-04-02T22:38:34.681Z,100.00
2023-04-02T22:41:38.393Z,100.00
2023-04-02T22:44:41.346Z,100.00
2023-04-02T22:47:44.483Z,100.00
2023-04-02T22:50:50.860Z,100.00
2023-04-02T22:53:54.769Z,100.00
2023-04-02T22:57:00.119Z,100.00
2023-04-02T23:00:06.531Z,100.00
2023-04-02T23:03:11.790Z,100.00
2023-04-02T23:06:17.156Z,100.00
2023-04-02T23:09:20.290Z,100.00
2023-04-02T23:12:23.690Z,100.00
2023-04-02T23:15:26.332Z,100.00
2023-04-02T23:18:31.762Z,100.00
2023-04-02T23:21:34.659Z,100.00
2023-04-02T23:24:37.481Z,96.02
2023-04-02T23:27:40.217Z,95.88
2023-04-02T23:30:44.104Z,91.68
2023-04-02T23:33:46.891Z,92.96
2023-04-02T23:36:49.719Z,93.45
2023-04-02T23:39:52.340Z,93.91
2023-04-02T23:42:55.186Z,92.15
2023-04-02T23:45:57.858Z,91.30
2023-04-02T23:49:01.586Z,89.74
2023-04-02T23:52:04.281Z,89.59
2023-04-02T23:55:07.530Z,89.41
2023-04-02T23:58:10.110Z,88.90
